Terminal Aerodrome Forecast
Issued by NWS Wakefield, VA

Home | Current Version | Previous Version | Text Only | Print | Product List | Glossary On
Versions: 1 2 3 4 5 6 7 8 9 10 11 12 13 14 15 16 17 18 19 20 21 22 23 24
000
FTUS41 KAKQ 020645 AAA
TAFRIC
TAF AMD
KRIC 020645Z 0207/0306 16007KT 6SM BR SCT004 BKN080
      TEMPO 0207/0209 3SM -RA BR OVC004
     FM020900 10004KT 2SM BR OVC002
     FM021400 18005KT 4SM BR OVC005
     FM021600 21008KT P6SM SCT060 BKN200=

USA.gov is the U.S. government's official web portal to all federal, state and local government web resources and services.